sensor_id;sensor_type;location;lat;lon;timestamp;temperature;humidity
66522;SHT31;53349;53.538;8.584;2023-03-13T00:01:10;7.31;84.05
66522;SHT31;53349;53.538;8.584;2023-03-13T00:03:36;7.33;84.03
66522;SHT31;53349;53.538;8.584;2023-03-13T00:06:02;7.35;84.12
66522;SHT31;53349;53.538;8.584;2023-03-13T00:08:28;7.40;84.07
66522;SHT31;53349;53.538;8.584;2023-03-13T00:10:53;7.43;84.00
66522;SHT31;53349;53.538;8.584;2023-03-13T00:13:19;7.47;83.93
66522;SHT31;53349;53.538;8.584;2023-03-13T00:15:44;7.48;83.91
66522;SHT31;53349;53.538;8.584;2023-03-13T00:18:09;7.50;83.93
66522;SHT31;53349;53.538;8.584;2023-03-13T00:20:35;7.53;83.83
66522;SHT31;53349;53.538;8.584;2023-03-13T00:23:01;7.55;83.81
66522;SHT31;53349;53.538;8.584;2023-03-13T00:25:29;7.57;83.71
66522;SHT31;53349;53.538;8.584;2023-03-13T00:27:54;7.60;83.67
66522;SHT31;53349;53.538;8.584;2023-03-13T00:30:21;7.55;83.70
66522;SHT31;53349;53.538;8.584;2023-03-13T00:32:47;7.57;83.76
66522;SHT31;53349;53.538;8.584;2023-03-13T00:35:19;7.58;83.76
66522;SHT31;53349;53.538;8.584;2023-03-13T00:37:46;7.58;83.70
66522;SHT31;53349;53.538;8.584;2023-03-13T00:40:12;7.58;83.74
66522;SHT31;53349;53.538;8.584;2023-03-13T00:42:37;7.60;83.69
66522;SHT31;53349;53.538;8.584;2023-03-13T00:45:03;7.61;83.65
66522;SHT31;53349;53.538;8.584;2023-03-13T00:47:29;7.65;83.59
66522;SHT31;53349;53.538;8.584;2023-03-13T00:49:55;7.70;83.55
66522;SHT31;53349;53.538;8.584;2023-03-13T00:52:20;7.72;83.54
66522;SHT31;53349;53.538;8.584;2023-03-13T00:54:47;7.78;83.48
66522;SHT31;53349;53.538;8.584;2023-03-13T00:57:12;7.77;83.41
66522;SHT31;53349;53.538;8.584;2023-03-13T00:59:38;7.82;83.38
66522;SHT31;53349;53.538;8.584;2023-03-13T01:02:03;7.81;83.35
66522;SHT31;53349;53.538;8.584;2023-03-13T01:04:29;7.82;83.28
66522;SHT31;53349;53.538;8.584;2023-03-13T01:06:54;7.84;83.31
66522;SHT31;53349;53.538;8.584;2023-03-13T01:09:20;7.85;83.30
66522;SHT31;53349;53.538;8.584;2023-03-13T01:11:45;7.82;83.29
66522;SHT31;53349;53.538;8.584;2023-03-13T01:14:16;7.79;83.46
66522;SHT31;53349;53.538;8.584;2023-03-13T01:16:42;7.78;83.67
66522;SHT31;53349;53.538;8.584;2023-03-13T01:19:11;7.75;83.82
66522;SHT31;53349;53.538;8.584;2023-03-13T01:21:37;7.70;83.91
66522;SHT31;53349;53.538;8.584;2023-03-13T01:24:03;7.67;84.15
66522;SHT31;53349;53.538;8.584;2023-03-13T01:26:29;7.64;84.34
66522;SHT31;53349;53.538;8.584;2023-03-13T01:28:56;7.58;84.59
66522;SHT31;53349;53.538;8.584;2023-03-13T01:31:29;7.54;84.80
66522;SHT31;53349;53.538;8.584;2023-03-13T01:34:02;7.54;84.90
66522;SHT31;53349;53.538;8.584;2023-03-13T01:36:29;7.51;84.97
66522;SHT31;53349;53.538;8.584;2023-03-13T01:38:57;7.51;85.04
66522;SHT31;53349;53.538;8.584;2023-03-13T01:41:24;7.51;85.13
66522;SHT31;53349;53.538;8.584;2023-03-13T01:43:50;7.51;85.18
66522;SHT31;53349;53.538;8.584;2023-03-13T01:46:17;7.51;85.22
66522;SHT31;53349;53.538;8.584;2023-03-13T01:49:11;7.51;85.21
66522;SHT31;53349;53.538;8.584;2023-03-13T01:51:49;7.53;85.29
66522;SHT31;53349;53.538;8.584;2023-03-13T01:54:27;7.50;85.36
66522;SHT31;53349;53.538;8.584;2023-03-13T01:59:40;7.50;85.52
66522;SHT31;53349;53.538;8.584;2023-03-13T02:02:08;7.50;85.59
66522;SHT31;53349;53.538;8.584;2023-03-13T02:04:41;7.48;85.62
66522;SHT31;53349;53.538;8.584;2023-03-13T02:07:13;7.48;85.70
66522;SHT31;53349;53.538;8.584;2023-03-13T02:09:43;7.47;85.75
66522;SHT31;53349;53.538;8.584;2023-03-13T02:12:17;7.46;85.80
66522;SHT31;53349;53.538;8.584;2023-03-13T02:14:46;7.44;85.88
66522;SHT31;53349;53.538;8.584;2023-03-13T02:17:14;7.44;85.93
66522;SHT31;53349;53.538;8.584;2023-03-13T02:19:43;7.43;85.91
66522;SHT31;53349;53.538;8.584;2023-03-13T02:27:44;7.47;85.99
66522;SHT31;53349;53.538;8.584;2023-03-13T02:30:12;7.47;85.94
66522;SHT31;53349;53.538;8.584;2023-03-13T02:32:42;7.47;85.98
66522;SHT31;53349;53.538;8.584;2023-03-13T02:35:11;7.47;86.02
66522;SHT31;53349;53.538;8.584;2023-03-13T02:37:45;7.48;85.98
66522;SHT31;53349;53.538;8.584;2023-03-13T02:40:14;7.48;85.94
66522;SHT31;53349;53.538;8.584;2023-03-13T02:42:43;7.47;86.02
66522;SHT31;53349;53.538;8.584;2023-03-13T02:45:15;7.47;86.08
66522;SHT31;53349;53.538;8.584;2023-03-13T02:47:43;7.47;86.12
66522;SHT31;53349;53.538;8.584;2023-03-13T02:50:08;7.50;86.16
66522;SHT31;53349;53.538;8.584;2023-03-13T02:52:44;7.47;86.16
66522;SHT31;53349;53.538;8.584;2023-03-13T02:55:16;7.48;86.19
66522;SHT31;53349;53.538;8.584;2023-03-13T02:57:43;7.48;86.23
66522;SHT31;53349;53.538;8.584;2023-03-13T03:00:09;7.47;86.23
66522;SHT31;53349;53.538;8.584;2023-03-13T03:02:40;7.48;86.33
66522;SHT31;53349;53.538;8.584;2023-03-13T03:05:06;7.46;86.36
66522;SHT31;53349;53.538;8.584;2023-03-13T03:07:32;7.48;86.41
66522;SHT31;53349;53.538;8.584;2023-03-13T03:09:57;7.53;86.43
66522;SHT31;53349;53.538;8.584;2023-03-13T03:12:22;7.51;86.46
66522;SHT31;53349;53.538;8.584;2023-03-13T03:14:48;7.48;86.62
66522;SHT31;53349;53.538;8.584;2023-03-13T03:17:13;7.48;86.72
66522;SHT31;53349;53.538;8.584;2023-03-13T03:19:40;7.47;86.72
66522;SHT31;53349;53.538;8.584;2023-03-13T03:22:05;7.50;86.73
66522;SHT31;53349;53.538;8.584;2023-03-13T03:24:30;7.53;86.84
66522;SHT31;53349;53.538;8.584;2023-03-13T03:26:55;7.51;86.91
66522;SHT31;53349;53.538;8.584;2023-03-13T03:29:21;7.50;86.93
66522;SHT31;53349;53.538;8.584;2023-03-13T03:31:47;7.54;87.09
66522;SHT31;53349;53.538;8.584;2023-03-13T03:34:13;7.53;87.20
66522;SHT31;53349;53.538;8.584;2023-03-13T03:36:38;7.55;87.26
66522;SHT31;53349;53.538;8.584;2023-03-13T03:39:03;7.54;87.35
66522;SHT31;53349;53.538;8.584;2023-03-13T03:41:28;7.53;87.43
66522;SHT31;53349;53.538;8.584;2023-03-13T03:43:57;7.54;87.57
66522;SHT31;53349;53.538;8.584;2023-03-13T03:46:22;7.53;87.74
66522;SHT31;53349;53.538;8.584;2023-03-13T03:48:47;7.57;87.84
66522;SHT31;53349;53.538;8.584;2023-03-13T03:51:13;7.57;87.87
66522;SHT31;53349;53.538;8.584;2023-03-13T03:53:38;7.58;87.95
66522;SHT31;53349;53.538;8.584;2023-03-13T03:56:04;7.58;88.07
66522;SHT31;53349;53.538;8.584;2023-03-13T03:58:30;7.58;88.08
66522;SHT31;53349;53.538;8.584;2023-03-13T04:00:58;7.60;88.15
66522;SHT31;53349;53.538;8.584;2023-03-13T04:03:26;7.58;88.22
66522;SHT31;53349;53.538;8.584;2023-03-13T04:05:52;7.60;88.28
66522;SHT31;53349;53.538;8.584;2023-03-13T04:08:18;7.60;88.33
66522;SHT31;53349;53.538;8.584;2023-03-13T04:10:45;7.63;88.43
66522;SHT31;53349;53.538;8.584;2023-03-13T04:13:10;7.63;88.57
66522;SHT31;53349;53.538;8.584;2023-03-13T04:15:39;7.65;88.58
66522;SHT31;53349;53.538;8.584;2023-03-13T04:18:07;7.64;88.60
66522;SHT31;53349;53.538;8.584;2023-03-13T04:20:34;7.70;88.70
66522;SHT31;53349;53.538;8.584;2023-03-13T04:23:03;7.71;88.76
66522;SHT31;53349;53.538;8.584;2023-03-13T04:25:30;7.70;88.89
66522;SHT31;53349;53.538;8.584;2023-03-13T04:27:56;7.72;89.01
66522;SHT31;53349;53.538;8.584;2023-03-13T04:30:21;7.78;89.10
66522;SHT31;53349;53.538;8.584;2023-03-13T04:32:46;7.79;89.14
66522;SHT31;53349;53.538;8.584;2023-03-13T04:35:12;7.84;89.23
66522;SHT31;53349;53.538;8.584;2023-03-13T04:37:39;7.85;89.29
66522;SHT31;53349;53.538;8.584;2023-03-13T04:40:06;7.86;89.31
66522;SHT31;53349;53.538;8.584;2023-03-13T04:42:31;7.86;89.36
66522;SHT31;53349;53.538;8.584;2023-03-13T04:44:57;7.91;89.43
66522;SHT31;53349;53.538;8.584;2023-03-13T04:47:22;7.96;89.44
66522;SHT31;53349;53.538;8.584;2023-03-13T04:49:47;7.96;89.41
66522;SHT31;53349;53.538;8.584;2023-03-13T04:52:12;7.95;89.50
66522;SHT31;53349;53.538;8.584;2023-03-13T04:54:39;7.95;89.59
66522;SHT31;53349;53.538;8.584;2023-03-13T04:57:04;7.95;89.66
66522;SHT31;53349;53.538;8.584;2023-03-13T04:59:30;7.99;89.70
66522;SHT31;53349;53.538;8.584;2023-03-13T05:01:56;7.98;89.72
66522;SHT31;53349;53.538;8.584;2023-03-13T05:04:21;7.98;89.70
66522;SHT31;53349;53.538;8.584;2023-03-13T05:06:48;7.98;89.74
66522;SHT31;53349;53.538;8.584;2023-03-13T05:09:14;7.98;89.75
66522;SHT31;53349;53.538;8.584;2023-03-13T05:11:39;7.96;89.79
66522;SHT31;53349;53.538;8.584;2023-03-13T05:14:06;7.99;89.83
66522;SHT31;53349;53.538;8.584;2023-03-13T05:16:34;8.02;89.87
66522;SHT31;53349;53.538;8.584;2023-03-13T05:19:00;7.99;89.90
66522;SHT31;53349;53.538;8.584;2023-03-13T05:21:26;8.03;89.91
66522;SHT31;53349;53.538;8.584;2023-03-13T05:23:51;8.01;89.95
66522;SHT31;53349;53.538;8.584;2023-03-13T05:26:16;8.03;90.02
66522;SHT31;53349;53.538;8.584;2023-03-13T05:28:42;8.01;90.04
66522;SHT31;53349;53.538;8.584;2023-03-13T05:31:07;8.05;90.10
66522;SHT31;53349;53.538;8.584;2023-03-13T05:33:32;8.05;90.09
66522;SHT31;53349;53.538;8.584;2023-03-13T05:35:57;8.05;90.13
66522;SHT31;53349;53.538;8.584;2023-03-13T05:38:23;8.06;90.15
66522;SHT31;53349;53.538;8.584;2023-03-13T05:40:48;8.12;90.15
66522;SHT31;53349;53.538;8.584;2023-03-13T05:43:14;8.09;90.15
66522;SHT31;53349;53.538;8.584;2023-03-13T05:45:40;8.15;90.15
66522;SHT31;53349;53.538;8.584;2023-03-13T05:48:07;8.16;90.17
66522;SHT31;53349;53.538;8.584;2023-03-13T05:50:33;8.17;90.22
66522;SHT31;53349;53.538;8.584;2023-03-13T05:53:01;8.23;90.25
66522;SHT31;53349;53.538;8.584;2023-03-13T05:55:26;8.22;90.26
66522;SHT31;53349;53.538;8.584;2023-03-13T05:57:52;8.29;90.26
66522;SHT31;53349;53.538;8.584;2023-03-13T06:00:17;8.30;90.28
66522;SHT31;53349;53.538;8.584;2023-03-13T06:02:43;8.37;90.26
66522;SHT31;53349;53.538;8.584;2023-03-13T06:05:09;8.40;90.25
66522;SHT31;53349;53.538;8.584;2023-03-13T06:07:35;8.47;90.23
66522;SHT31;53349;53.538;8.584;2023-03-13T06:10:01;8.47;90.25
66522;SHT31;53349;53.538;8.584;2023-03-13T06:12:26;8.52;90.26
66522;SHT31;53349;53.538;8.584;2023-03-13T06:14:51;8.59;90.25
66522;SHT31;53349;53.538;8.584;2023-03-13T06:17:17;8.64;90.28
66522;SHT31;53349;53.538;8.584;2023-03-13T06:19:42;8.71;90.27
66522;SHT31;53349;53.538;8.584;2023-03-13T06:22:11;8.74;90.32
66522;SHT31;53349;53.538;8.584;2023-03-13T06:24:37;8.89;90.34
66522;SHT31;53349;53.538;8.584;2023-03-13T06:27:02;9.01;90.38
66522;SHT31;53349;53.538;8.584;2023-03-13T06:29:27;9.05;90.29
66522;SHT31;53349;53.538;8.584;2023-03-13T06:31:56;9.07;90.25
66522;SHT31;53349;53.538;8.584;2023-03-13T06:34:21;9.03;90.15
66522;SHT31;53349;53.538;8.584;2023-03-13T06:36:46;9.04;90.15
66522;SHT31;53349;53.538;8.584;2023-03-13T06:39:12;9.01;90.08
66522;SHT31;53349;53.538;8.584;2023-03-13T06:41:38;9.01;90.08
66522;SHT31;53349;53.538;8.584;2023-03-13T06:44:05;8.98;90.09
66522;SHT31;53349;53.538;8.584;2023-03-13T06:46:30;9.03;90.13
66522;SHT31;53349;53.538;8.584;2023-03-13T06:48:58;9.08;90.11
66522;SHT31;53349;53.538;8.584;2023-03-13T06:51:24;9.11;90.09
66522;SHT31;53349;53.538;8.584;2023-03-13T06:53:50;9.10;90.13
66522;SHT31;53349;53.538;8.584;2023-03-13T06:56:16;9.14;90.10
66522;SHT31;53349;53.538;8.584;2023-03-13T06:58:41;9.19;90.14
66522;SHT31;53349;53.538;8.584;2023-03-13T07:01:11;9.28;90.17
66522;SHT31;53349;53.538;8.584;2023-03-13T07:03:37;9.32;90.12
66522;SHT31;53349;53.538;8.584;2023-03-13T07:06:03;9.35;90.15
66522;SHT31;53349;53.538;8.584;2023-03-13T07:08:29;9.38;90.10
66522;SHT31;53349;53.538;8.584;2023-03-13T07:10:58;9.46;90.07
66522;SHT31;53349;53.538;8.584;2023-03-13T07:13:25;9.50;90.08
66522;SHT31;53349;53.538;8.584;2023-03-13T07:15:51;9.55;90.06
66522;SHT31;53349;53.538;8.584;2023-03-13T07:18:16;9.56;90.08
66522;SHT31;53349;53.538;8.584;2023-03-13T07:20:42;9.57;90.06
66522;SHT31;53349;53.538;8.584;2023-03-13T07:23:10;9.60;90.12
66522;SHT31;53349;53.538;8.584;2023-03-13T07:25:35;9.66;90.10
66522;SHT31;53349;53.538;8.584;2023-03-13T07:28:02;9.76;90.13
66522;SHT31;53349;53.538;8.584;2023-03-13T07:30:27;9.84;90.13
66522;SHT31;53349;53.538;8.584;2023-03-13T07:32:54;9.90;90.07
66522;SHT31;53349;53.538;8.584;2023-03-13T07:35:19;9.96;90.08
66522;SHT31;53349;53.538;8.584;2023-03-13T07:37:47;9.96;90.00
66522;SHT31;53349;53.538;8.584;2023-03-13T07:40:13;9.96;89.97
66522;SHT31;53349;53.538;8.584;2023-03-13T07:42:40;9.94;89.97
66522;SHT31;53349;53.538;8.584;2023-03-13T07:45:07;10.00;90.00
66522;SHT31;53349;53.538;8.584;2023-03-13T07:47:33;10.04;90.05
66522;SHT31;53349;53.538;8.584;2023-03-13T07:49:59;10.11;90.01
66522;SHT31;53349;53.538;8.584;2023-03-13T07:52:24;10.18;90.01
66522;SHT31;53349;53.538;8.584;2023-03-13T07:54:49;10.20;90.04
66522;SHT31;53349;53.538;8.584;2023-03-13T07:57:15;10.21;89.99
66522;SHT31;53349;53.538;8.584;2023-03-13T07:59:40;10.24;89.95
66522;SHT31;53349;53.538;8.584;2023-03-13T08:02:08;10.22;89.97
66522;SHT31;53349;53.538;8.584;2023-03-13T08:04:35;10.25;89.98
66522;SHT31;53349;53.538;8.584;2023-03-13T08:07:22;10.27;89.93
66522;SHT31;53349;53.538;8.584;2023-03-13T08:09:47;10.31;89.93
66522;SHT31;53349;53.538;8.584;2023-03-13T08:12:13;10.30;89.87
66522;SHT31;53349;53.538;8.584;2023-03-13T08:14:39;10.31;89.78
66522;SHT31;53349;53.538;8.584;2023-03-13T08:17:05;10.34;89.65
66522;SHT31;53349;53.538;8.584;2023-03-13T08:19:30;10.40;89.61
66522;SHT31;53349;53.538;8.584;2023-03-13T08:21:55;10.37;89.47
66522;SHT31;53349;53.538;8.584;2023-03-13T08:24:22;10.37;89.40
66522;SHT31;53349;53.538;8.584;2023-03-13T08:26:47;10.38;89.37
66522;SHT31;53349;53.538;8.584;2023-03-13T08:29:15;10.45;89.24
66522;SHT31;53349;53.538;8.584;2023-03-13T08:31:46;10.42;89.10
66522;SHT31;53349;53.538;8.584;2023-03-13T08:34:13;10.51;89.02
66522;SHT31;53349;53.538;8.584;2023-03-13T08:36:39;10.56;89.01
66522;SHT31;53349;53.538;8.584;2023-03-13T08:39:12;10.56;88.87
66522;SHT31;53349;53.538;8.584;2023-03-13T08:41:38;10.59;88.90
66522;SHT31;53349;53.538;8.584;2023-03-13T08:44:04;10.62;88.81
66522;SHT31;53349;53.538;8.584;2023-03-13T08:46:31;10.64;88.73
66522;SHT31;53349;53.538;8.584;2023-03-13T08:48:57;10.72;88.69
66522;SHT31;53349;53.538;8.584;2023-03-13T08:51:26;10.75;88.69
66522;SHT31;53349;53.538;8.584;2023-03-13T08:53:53;10.76;88.66
66522;SHT31;53349;53.538;8.584;2023-03-13T08:56:20;10.75;88.64
66522;SHT31;53349;53.538;8.584;2023-03-13T08:58:52;10.76;88.61
66522;SHT31;53349;53.538;8.584;2023-03-13T09:01:18;10.79;88.60
66522;SHT31;53349;53.538;8.584;2023-03-13T09:03:45;10.77;88.61
66522;SHT31;53349;53.538;8.584;2023-03-13T09:06:10;10.76;88.55
66522;SHT31;53349;53.538;8.584;2023-03-13T09:08:36;10.77;88.60
66522;SHT31;53349;53.538;8.584;2023-03-13T09:11:04;10.80;88.49
66522;SHT31;53349;53.538;8.584;2023-03-13T09:13:33;10.80;88.48
66522;SHT31;53349;53.538;8.584;2023-03-13T09:16:01;10.77;88.45
66522;SHT31;53349;53.538;8.584;2023-03-13T09:18:28;10.83;88.57
66522;SHT31;53349;53.538;8.584;2023-03-13T09:20:56;10.88;88.51
66522;SHT31;53349;53.538;8.584;2023-03-13T09:23:22;10.86;88.47
66522;SHT31;53349;53.538;8.584;2023-03-13T09:25:51;10.88;88.43
66522;SHT31;53349;53.538;8.584;2023-03-13T09:28:17;10.92;88.43
66522;SHT31;53349;53.538;8.584;2023-03-13T09:30:42;10.93;88.37
66522;SHT31;53349;53.538;8.584;2023-03-13T09:33:07;10.95;88.20
66522;SHT31;53349;53.538;8.584;2023-03-13T09:35:33;10.92;88.16
66522;SHT31;53349;53.538;8.584;2023-03-13T09:37:58;10.91;88.24
66522;SHT31;53349;53.538;8.584;2023-03-13T09:40:25;10.95;88.18
66522;SHT31;53349;53.538;8.584;2023-03-13T09:42:58;10.92;88.12
66522;SHT31;53349;53.538;8.584;2023-03-13T09:45:35;10.97;88.01
66522;SHT31;53349;53.538;8.584;2023-03-13T09:48:45;11.00;87.95
66522;SHT31;53349;53.538;8.584;2023-03-13T09:51:19;11.07;87.86
66522;SHT31;53349;53.538;8.584;2023-03-13T09:53:52;11.13;87.55
66522;SHT31;53349;53.538;8.584;2023-03-13T09:56:29;11.23;87.24
66522;SHT31;53349;53.538;8.584;2023-03-13T09:59:04;11.24;86.82
66522;SHT31;53349;53.538;8.584;2023-03-13T10:01:34;11.28;86.45
66522;SHT31;53349;53.538;8.584;2023-03-13T10:04:06;11.44;85.90
66522;SHT31;53349;53.538;8.584;2023-03-13T10:06:42;11.58;85.53
66522;SHT31;53349;53.538;8.584;2023-03-13T10:09:19;11.54;84.93
66522;SHT31;53349;53.538;8.584;2023-03-13T10:11:57;11.63;84.62
66522;SHT31;53349;53.538;8.584;2023-03-13T10:14:37;11.64;84.35
66522;SHT31;53349;53.538;8.584;2023-03-13T10:17:14;11.67;84.11
66522;SHT31;53349;53.538;8.584;2023-03-13T10:19:42;11.77;83.58
66522;SHT31;53349;53.538;8.584;2023-03-13T10:22:18;11.79;83.16
66522;SHT31;53349;53.538;8.584;2023-03-13T10:27:14;11.89;82.44
66522;SHT31;53349;53.538;8.584;2023-03-13T10:29:41;11.95;82.52
66522;SHT31;53349;53.538;8.584;2023-03-13T10:32:09;12.09;81.82
66522;SHT31;53349;53.538;8.584;2023-03-13T10:37:21;12.25;80.90
66522;SHT31;53349;53.538;8.584;2023-03-13T10:39:47;12.30;81.15
66522;SHT31;53349;53.538;8.584;2023-03-13T10:42:31;12.33;80.85
66522;SHT31;53349;53.538;8.584;2023-03-13T10:44:58;12.32;80.85
66522;SHT31;53349;53.538;8.584;2023-03-13T10:47:24;12.32;80.26
66522;SHT31;53349;53.538;8.584;2023-03-13T10:49:56;12.40;79.90
66522;SHT31;53349;53.538;8.584;2023-03-13T10:52:43;12.40;79.75
66522;SHT31;53349;53.538;8.584;2023-03-13T10:55:11;12.46;79.51
66522;SHT31;53349;53.538;8.584;2023-03-13T10:57:37;12.45;79.02
66522;SHT31;53349;53.538;8.584;2023-03-13T11:02:52;12.57;78.13
66522;SHT31;53349;53.538;8.584;2023-03-13T11:07:50;12.63;78.38
66522;SHT31;53349;53.538;8.584;2023-03-13T11:10:27;12.61;78.13
66522;SHT31;53349;53.538;8.584;2023-03-13T11:12:56;12.61;77.71
66522;SHT31;53349;53.538;8.584;2023-03-13T11:15:29;12.67;77.87
66522;SHT31;53349;53.538;8.584;2023-03-13T11:18:19;12.86;77.66
66522;SHT31;53349;53.538;8.584;2023-03-13T11:20:48;13.07;76.70
66522;SHT31;53349;53.538;8.584;2023-03-13T11:26:14;13.35;74.67
66522;SHT31;53349;53.538;8.584;2023-03-13T11:28:51;13.44;74.38
66522;SHT31;53349;53.538;8.584;2023-03-13T11:37:09;13.83;70.67
66522;SHT31;53349;53.538;8.584;2023-03-13T11:45:16;14.38;67.41
66522;SHT31;53349;53.538;8.584;2023-03-13T11:53:16;14.31;65.79
66522;SHT31;53349;53.538;8.584;2023-03-13T11:55:58;14.38;65.82
66522;SHT31;53349;53.538;8.584;2023-03-13T12:01:00;14.54;63.96
66522;SHT31;53349;53.538;8.584;2023-03-13T12:06:25;14.45;63.25
66522;SHT31;53349;53.538;8.584;2023-03-13T12:09:01;14.47;63.11
66522;SHT31;53349;53.538;8.584;2023-03-13T12:11:56;14.37;63.39
66522;SHT31;53349;53.538;8.584;2023-03-13T12:14:32;14.37;62.71
66522;SHT31;53349;53.538;8.584;2023-03-13T12:17:05;14.37;64.11
66522;SHT31;53349;53.538;8.584;2023-03-13T12:19:58;14.36;63.97
66522;SHT31;53349;53.538;8.584;2023-03-13T12:22:32;14.40;64.28
66522;SHT31;53349;53.538;8.584;2023-03-13T12:25:09;14.57;63.36
66522;SHT31;53349;53.538;8.584;2023-03-13T12:27:46;14.72;62.47
66522;SHT31;53349;53.538;8.584;2023-03-13T12:30:23;14.75;62.44
66522;SHT31;53349;53.538;8.584;2023-03-13T12:33:17;14.79;61.60
66522;SHT31;53349;53.538;8.584;2023-03-13T12:35:48;14.84;61.77
66522;SHT31;53349;53.538;8.584;2023-03-13T12:38:36;14.74;62.12
66522;SHT31;53349;53.538;8.584;2023-03-13T12:43:38;14.67;62.35
66522;SHT31;53349;53.538;8.584;2023-03-13T12:46:12;14.65;62.57
66522;SHT31;53349;53.538;8.584;2023-03-13T12:54:28;14.79;62.46
66522;SHT31;53349;53.538;8.584;2023-03-13T12:57:00;14.88;62.31
66522;SHT31;53349;53.538;8.584;2023-03-13T13:02:00;14.89;62.22
66522;SHT31;53349;53.538;8.584;2023-03-13T13:04:29;14.86;62.20
66522;SHT31;53349;53.538;8.584;2023-03-13T13:09:37;14.84;61.16
66522;SHT31;53349;53.538;8.584;2023-03-13T13:12:24;14.78;62.24
66522;SHT31;53349;53.538;8.584;2023-03-13T13:19:54;14.78;62.29
66522;SHT31;53349;53.538;8.584;2023-03-13T13:25:27;14.86;61.00
66522;SHT31;53349;53.538;8.584;2023-03-13T13:27:53;14.93;60.56
66522;SHT31;53349;53.538;8.584;2023-03-13T13:32:52;14.89;59.86
66522;SHT31;53349;53.538;8.584;2023-03-13T13:35:26;14.79;59.90
66522;SHT31;53349;53.538;8.584;2023-03-13T13:44:13;14.78;60.44
66522;SHT31;53349;53.538;8.584;2023-03-13T13:46:32;14.78;59.74
66522;SHT31;53349;53.538;8.584;2023-03-13T13:49:28;14.78;59.64
66522;SHT31;53349;53.538;8.584;2023-03-13T13:57:19;14.93;59.37
66522;SHT31;53349;53.538;8.584;2023-03-13T14:02:54;14.92;58.29
66522;SHT31;53349;53.538;8.584;2023-03-13T14:05:24;14.85;58.78
66522;SHT31;53349;53.538;8.584;2023-03-13T14:07:57;14.79;58.10
66522;SHT31;53349;53.538;8.584;2023-03-13T14:15:46;14.81;57.53
66522;SHT31;53349;53.538;8.584;2023-03-13T14:20:53;14.78;57.79
66522;SHT31;53349;53.538;8.584;2023-03-13T14:23:36;14.88;56.70
66522;SHT31;53349;53.538;8.584;2023-03-13T14:26:20;14.92;56.74
66522;SHT31;53349;53.538;8.584;2023-03-13T14:28:48;14.86;57.43
66522;SHT31;53349;53.538;8.584;2023-03-13T14:31:25;14.85;57.96
66522;SHT31;53349;53.538;8.584;2023-03-13T14:33:52;14.69;58.54
66522;SHT31;53349;53.538;8.584;2023-03-13T14:36:18;14.61;59.21
66522;SHT31;53349;53.538;8.584;2023-03-13T14:38:56;14.57;59.75
66522;SHT31;53349;53.538;8.584;2023-03-13T14:41:41;14.57;60.03
66522;SHT31;53349;53.538;8.584;2023-03-13T14:44:28;14.54;59.98
66522;SHT31;53349;53.538;8.584;2023-03-13T14:47:03;14.51;60.81
66522;SHT31;53349;53.538;8.584;2023-03-13T14:49:29;14.51;61.00
66522;SHT31;53349;53.538;8.584;2023-03-13T14:52:06;14.44;61.69
66522;SHT31;53349;53.538;8.584;2023-03-13T14:54:51;14.36;62.34
66522;SHT31;53349;53.538;8.584;2023-03-13T14:57:20;14.37;62.88
66522;SHT31;53349;53.538;8.584;2023-03-13T14:59:46;14.31;63.26
66522;SHT31;53349;53.538;8.584;2023-03-13T15:02:15;14.28;63.30
66522;SHT31;53349;53.538;8.584;2023-03-13T15:07:15;14.27;63.33
66522;SHT31;53349;53.538;8.584;2023-03-13T15:09:41;14.41;62.44
66522;SHT31;53349;53.538;8.584;2023-03-13T15:12:18;14.45;62.14
66522;SHT31;53349;53.538;8.584;2023-03-13T15:14:46;14.47;61.87
66522;SHT31;53349;53.538;8.584;2023-03-13T15:17:20;14.49;61.71
66522;SHT31;53349;53.538;8.584;2023-03-13T15:19:54;14.51;61.13
66522;SHT31;53349;53.538;8.584;2023-03-13T15:22:28;14.54;60.60
66522;SHT31;53349;53.538;8.584;2023-03-13T15:24:55;14.51;60.39
66522;SHT31;53349;53.538;8.584;2023-03-13T15:27:23;14.47;59.97
66522;SHT31;53349;53.538;8.584;2023-03-13T15:29:48;14.42;60.16
66522;SHT31;53349;53.538;8.584;2023-03-13T15:32:29;14.38;59.85
66522;SHT31;53349;53.538;8.584;2023-03-13T15:34:55;14.34;59.89
66522;SHT31;53349;53.538;8.584;2023-03-13T15:37:26;14.33;59.90
66522;SHT31;53349;53.538;8.584;2023-03-13T15:39:53;14.34;60.18
66522;SHT31;53349;53.538;8.584;2023-03-13T15:42:19;14.30;60.53
66522;SHT31;53349;53.538;8.584;2023-03-13T15:44:44;14.23;60.82
66522;SHT31;53349;53.538;8.584;2023-03-13T15:47:14;14.14;61.93
66522;SHT31;53349;53.538;8.584;2023-03-13T15:49:41;14.12;61.65
66522;SHT31;53349;53.538;8.584;2023-03-13T15:52:23;14.06;61.90
66522;SHT31;53349;53.538;8.584;2023-03-13T15:54:49;14.05;62.23
66522;SHT31;53349;53.538;8.584;2023-03-13T15:57:16;14.05;61.95
66522;SHT31;53349;53.538;8.584;2023-03-13T15:59:43;14.02;61.78
66522;SHT31;53349;53.538;8.584;2023-03-13T16:02:16;13.99;61.90
66522;SHT31;53349;53.538;8.584;2023-03-13T16:04:42;13.95;62.42
66522;SHT31;53349;53.538;8.584;2023-03-13T16:07:11;13.89;62.33
66522;SHT31;53349;53.538;8.584;2023-03-13T16:09:39;13.77;62.93
66522;SHT31;53349;53.538;8.584;2023-03-13T16:12:06;13.73;63.27
66522;SHT31;53349;53.538;8.584;2023-03-13T16:14:33;13.67;63.35
66522;SHT31;53349;53.538;8.584;2023-03-13T16:16:59;13.61;63.90
66522;SHT31;53349;53.538;8.584;2023-03-13T16:19:27;13.56;63.94
66522;SHT31;53349;53.538;8.584;2023-03-13T16:21:52;13.49;64.27
66522;SHT31;53349;53.538;8.584;2023-03-13T16:24:17;13.44;64.16
66522;SHT31;53349;53.538;8.584;2023-03-13T16:26:43;13.41;64.14
66522;SHT31;53349;53.538;8.584;2023-03-13T16:29:13;13.36;64.34
66522;SHT31;53349;53.538;8.584;2023-03-13T16:31:39;13.34;64.34
66522;SHT31;53349;53.538;8.584;2023-03-13T16:34:05;13.28;64.30
66522;SHT31;53349;53.538;8.584;2023-03-13T16:36:31;13.25;64.79
66522;SHT31;53349;53.538;8.584;2023-03-13T16:38:58;13.19;64.41
66522;SHT31;53349;53.538;8.584;2023-03-13T16:41:24;13.17;65.36
66522;SHT31;53349;53.538;8.584;2023-03-13T16:43:53;13.15;64.87
66522;SHT31;53349;53.538;8.584;2023-03-13T16:46:37;13.12;64.63
66522;SHT31;53349;53.538;8.584;2023-03-13T16:49:03;13.11;64.81
66522;SHT31;53349;53.538;8.584;2023-03-13T16:51:32;13.05;65.01
66522;SHT31;53349;53.538;8.584;2023-03-13T16:54:00;13.05;64.58
66522;SHT31;53349;53.538;8.584;2023-03-13T16:56:34;13.03;64.53
66522;SHT31;53349;53.538;8.584;2023-03-13T16:59:03;13.00;64.46
66522;SHT31;53349;53.538;8.584;2023-03-13T17:01:29;13.01;64.79
66522;SHT31;53349;53.538;8.584;2023-03-13T17:03:56;12.97;64.75
66522;SHT31;53349;53.538;8.584;2023-03-13T17:06:33;12.91;64.62
66522;SHT31;53349;53.538;8.584;2023-03-13T17:08:59;12.88;63.83
66522;SHT31;53349;53.538;8.584;2023-03-13T17:11:29;12.86;64.21
66522;SHT31;53349;53.538;8.584;2023-03-13T17:13:56;12.84;64.01
66522;SHT31;53349;53.538;8.584;2023-03-13T17:18:51;12.74;63.94
66522;SHT31;53349;53.538;8.584;2023-03-13T17:21:21;12.72;64.04
66522;SHT31;53349;53.538;8.584;2023-03-13T17:23:47;12.68;63.73